Cleveland, OH (44141)

7:13 PM EDT on August 20, 2014 (GMT -0400)
Macintosh Farms | Change Station
CLOSE
Current Station
Personal Weather Station
Location: Broadview Heights, OH
Elevation: 1230 ft
Nearby Weather Stations

Elev 1230 ft 41.28 °N, 81.69 °W | Updated 7 minutes ago

Mostly Cloudy
Mostly Cloudy
79.0 °F
Feels Like 82 °F
N
0.0
Wind Variable Wind from SW
Gusts 2.2 mph

Today
High -- | Low -- °F
--% Chance of Precip.
Yesterday
High -- | Low -- °F
Precip. -- in
6:40 AM 8:18 PM
Waning Crescent, 18% visible
Pressure 29.91 in
Visibility 10.0 miles
Clouds Few 4200 ft
Mostly Cloudy 8500 ft
Mostly Cloudy 11000 ft
Mostly Cloudy 25000 ft
Heat Index 82 °F
Dew Point 70 °F
Humidity 73%
Rainfall 0.35 in
Snow Depth Not available.
UV 1 out of 12
Pollen 8.80 out of 12
Ozone Good
PM2.5 Moderate
Flu Activity Not available.
METAR KCLE 202251Z 29005KT 10SM FEW042 BKN085 BKN110 BKN250 26/19 A2992 RMK AO2 SLP128 MDT CU S T02610194

More Conditions Fewer Conditions

Pressure 29.91 in
Visibility 10.0 miles
Clouds Few 4200 ft
Mostly Cloudy 8500 ft
Mostly Cloudy 11000 ft
Mostly Cloudy 25000 ft
Heat Index 82 °F
Dew Point 70 °F
Humidity 73%
Rainfall 0.35 in
Snow Depth Not available.
UV 1 out of 12
Pollen 8.80 out of 12
Ozone Good
PM2.5 Moderate
Flu Activity Not available.
METAR KCLE 202251Z 29005KT 10SM FEW042 BKN085 BKN110 BKN250 26/19 A2992 RMK AO2 SLP128 MDT CU S T02610194

More Conditions Fewer Conditions

10-Day Weather Forecast

Almanac

Astronomy

Aug. 20, 2014 Rise Set
Actual Time 6:40 AM EDT 8:18 PM EDT
Civil Twilight 6:11 AM EDT 8:47 PM EDT
Nautical Twilight 5:36 AM EDT 9:22 PM EDT
Astronomical Twilight 4:58 AM EDT 10:00 PM EDT
Moon 2:18 AM EDT 5:03 PM EDT
Length of Visible Light 14h 35m
Length of Day
13h 37m
Tomorrow will be 2m 31s shorter.
Waning Crescent, 18% of the Moon is Illuminated
Today
Waning Crescent
Aug 25
New
Sep 2
First Quarter
Sep 8
Full
Sep 15
Last Quarter

Today's Extremes

State Highs State Lows

Community

WunderPhotos

Upload Photos

1,745,791 photos uploaded!

Nearby

Air Quality

  Air Quality AQ Index Pollutant
Yesterday Good
PM10
Yesterday Good
OZONE
Current Moderate
PM2.5
Current Good
OZONE
Wednesday Moderate
PM2.5
Wednesday Moderate
OZONE
Thursday Moderate
PM2.5
Thursday Moderate
OZONE
Friday Moderate
PM2.5
Friday Moderate
OZONE
Saturday Moderate
PM2.5
Saturday Moderate
OZONE
Sunday Moderate
PM2.5
Sunday Moderate
OZONE

Snow Depth

Station Depth Elevation
No new snow has been reported.

Earthquake Activity

City Distance Mag. Time & Date
No recent earthquake activity has been reported nearby.
Minimum magnitude displayed is 2.5.

Coastal Water Temperatures

Place Temperature
Cleveland, OH 72.0 °F
Fairport, OH 75.9 °F

Nearby Weather Stations